METAR Data
IDs: Format: Raw Decoded Include TAF

Data at: 0235 UTC 25 Jan 2020

METAR for:KMPZ (Mount Pleasant Muni, IA, US)
Text:KMPZ 250215Z AUTO 31009KT 2SM -SN OVC006 01/01 A2990 RMK AO2
Temperature: 1.0°C ( 34°F)
Dewpoint: 1.0°C ( 34°F) [RH = 100%]
Pressure (altimeter):29.90 inches Hg (1012.6 mb)
Winds:from the NW (310 degrees) at 10 MPH (9 knots; 4.6 m/s)
Visibility: 2.00 sm ( 3.22 km)
Ceiling:600 feet AGL
Clouds: overcast cloud deck at 600 feet AGL
Weather:-SN (light snow)
QC Flag:automated observation with no human augmentation